createdAt,value
2022-12-17T00:02:35.000Z,45.66
2022-12-17T00:07:35.000Z,45.16
2022-12-17T00:17:34.000Z,44.79
2022-12-17T00:22:35.000Z,45.26
2022-12-17T00:27:35.000Z,45.26
2022-12-17T00:32:34.000Z,42.4
2022-12-17T00:37:35.000Z,39.83
2022-12-17T00:42:35.000Z,37.39
2022-12-17T00:47:35.000Z,37.63
2022-12-17T00:52:35.000Z,34.02
2022-12-17T00:57:35.000Z,34.65
2022-12-17T01:07:35.000Z,34.24
2022-12-17T01:12:34.000Z,33.41
2022-12-17T01:17:34.000Z,35.82
2022-12-17T01:22:35.000Z,37.17
2022-12-17T01:27:34.000Z,37.17
2022-12-17T01:37:34.000Z,41.32
2022-12-17T01:42:35.000Z,44.69
2022-12-17T01:47:35.000Z,45.19
2022-12-17T01:52:35.000Z,46.08
2022-12-17T01:57:34.000Z,46.06
2022-12-17T02:02:35.000Z,43.16
2022-12-17T02:07:35.000Z,43.16
2022-12-17T02:12:35.000Z,42.19
2022-12-17T02:17:34.000Z,39.94
2022-12-17T02:22:34.000Z,39.82
2022-12-17T02:27:34.000Z,37.96
2022-12-17T02:32:34.000Z,37.26
2022-12-17T02:37:35.000Z,32.79
2022-12-17T02:42:34.000Z,33.49
2022-12-17T02:47:35.000Z,31.14
2022-12-17T02:52:34.000Z,32.26
2022-12-17T02:57:34.000Z,34.1
2022-12-17T03:02:34.000Z,32.83
2022-12-17T03:07:34.000Z,35.19
2022-12-17T03:12:34.000Z,33.78
2022-12-17T03:22:34.000Z,36.94
2022-12-17T03:27:35.000Z,33.15
2022-12-17T03:32:34.000Z,33.39
2022-12-17T03:37:34.000Z,32.94
2022-12-17T03:42:35.000Z,31.06
2022-12-17T03:47:35.000Z,30.24
2022-12-17T03:52:34.000Z,31.84
2022-12-17T03:57:35.000Z,31.76
2022-12-17T04:02:35.000Z,33
2022-12-17T04:12:34.000Z,30.76
2022-12-17T04:17:35.000Z,32.01
2022-12-17T04:22:34.000Z,30.98
2022-12-17T04:27:34.000Z,31.89
2022-12-17T04:32:35.000Z,32.73
2022-12-17T04:42:35.000Z,36.74
2022-12-17T04:47:34.000Z,34.11
2022-12-17T04:57:34.000Z,31.02
2022-12-17T05:02:35.000Z,35.86
2022-12-17T05:07:34.000Z,34.89
2022-12-17T05:12:34.000Z,33.31
2022-12-17T05:17:35.000Z,30.66
2022-12-17T05:22:35.000Z,33.65
2022-12-17T05:27:35.000Z,31.13
2022-12-17T05:32:35.000Z,31.84
2022-12-17T05:37:34.000Z,30.32
2022-12-17T05:42:35.000Z,27.48
2022-12-17T05:47:34.000Z,29.03
2022-12-17T05:52:35.000Z,29.24
2022-12-17T05:57:34.000Z,31.06
2022-12-17T06:07:34.000Z,33.44
2022-12-17T06:12:35.000Z,32.01
2022-12-17T06:17:34.000Z,32.01
2022-12-17T06:22:35.000Z,29.68
2022-12-17T06:27:34.000Z,30.76
2022-12-17T06:42:35.000Z,29.2
2022-12-17T06:47:34.000Z,29.2
2022-12-17T06:52:35.000Z,33.59
2022-12-17T06:57:34.000Z,34.81
2022-12-17T07:02:34.000Z,35.93
2022-12-17T07:12:34.000Z,37.87
2022-12-17T07:17:35.000Z,38.76
2022-12-17T07:22:34.000Z,38.76
2022-12-17T07:27:35.000Z,38.77
2022-12-17T07:32:35.000Z,36.09
2022-12-17T07:37:35.000Z,36.9
2022-12-17T07:42:35.000Z,32.79
2022-12-17T07:47:35.000Z,32.02
2022-12-17T07:52:34.000Z,33.13
2022-12-17T07:57:35.000Z,32.36
2022-12-17T08:07:35.000Z,28.82
2022-12-17T08:12:34.000Z,32.91
2022-12-17T08:17:35.000Z,33.98
2022-12-17T08:22:34.000Z,34.2
2022-12-17T08:27:35.000Z,33.09
2022-12-17T08:32:34.000Z,33.09
2022-12-17T08:37:35.000Z,32.85
2022-12-17T08:42:34.000Z,31.51
2022-12-17T08:47:34.000Z,33.09
2022-12-17T08:52:35.000Z,32.1
2022-12-17T08:57:42.000Z,32.71
2022-12-17T09:02:35.000Z,31.94
2022-12-17T09:12:35.000Z,32.74
2022-12-17T09:17:34.000Z,31.59
2022-12-17T09:22:34.000Z,33.53
2022-12-17T09:27:34.000Z,34.01
2022-12-17T09:32:35.000Z,34.76
2022-12-17T09:37:35.000Z,34.93
2022-12-17T09:42:34.000Z,34.02
2022-12-17T09:47:34.000Z,36.19
2022-12-17T09:52:35.000Z,36.19
2022-12-17T09:57:35.000Z,33.69
2022-12-17T10:02:35.000Z,33.37
2022-12-17T10:07:34.000Z,33.95
2022-12-17T10:12:35.000Z,34.16
2022-12-17T10:17:34.000Z,31.2
2022-12-17T10:22:35.000Z,33.29
2022-12-17T10:27:35.000Z,32.63
2022-12-17T10:32:35.000Z,32.95
2022-12-17T10:37:34.000Z,32.59
2022-12-17T10:42:34.000Z,30.77
2022-12-17T10:47:35.000Z,30.4
2022-12-17T10:52:34.000Z,29.69
2022-12-17T10:57:35.000Z,29.58
2022-12-17T11:02:35.000Z,29.58
2022-12-17T11:07:35.000Z,26.44
2022-12-17T11:12:40.000Z,27.81
2022-12-17T11:17:34.000Z,26.33
2022-12-17T11:22:35.000Z,26.71
2022-12-17T11:27:34.000Z,27.23
2022-12-17T11:32:35.000Z,26.59
2022-12-17T11:37:35.000Z,26.6
2022-12-17T11:42:34.000Z,27.23
2022-12-17T11:47:35.000Z,27.19
2022-12-17T11:52:35.000Z,26.87
2022-12-17T11:57:35.000Z,26.53
2022-12-17T12:02:35.000Z,28.27
2022-12-17T12:07:35.000Z,26.45
2022-12-17T12:12:35.000Z,28.84
2022-12-17T12:17:34.000Z,28.84
2022-12-17T12:27:35.000Z,28.81
2022-12-17T12:37:35.000Z,30.94
2022-12-17T12:42:34.000Z,35.41
2022-12-17T12:47:34.000Z,35.41
2022-12-17T12:52:34.000Z,37.66
2022-12-17T12:57:40.000Z,35.84
2022-12-17T13:07:35.000Z,41.68
2022-12-17T13:12:34.000Z,37.71
2022-12-17T13:17:35.000Z,39.31
2022-12-17T13:27:35.000Z,38.3
2022-12-17T13:32:34.000Z,39.91
2022-12-17T13:37:35.000Z,38.76
2022-12-17T13:42:34.000Z,40.85
2022-12-17T13:47:35.000Z,40.85
2022-12-17T13:52:35.000Z,42.79
2022-12-17T13:57:34.000Z,45.55
2022-12-17T14:02:36.000Z,48.43
2022-12-17T14:07:34.000Z,53.87
2022-12-17T14:12:35.000Z,55.26
2022-12-17T14:17:35.000Z,48.3
2022-12-17T14:22:35.000Z,45.76
2022-12-17T14:27:35.000Z,44.41
2022-12-17T14:32:35.000Z,42.45
2022-12-17T14:37:35.000Z,41.26
2022-12-17T14:42:34.000Z,39.84
2022-12-17T14:47:35.000Z,41.4
2022-12-17T14:52:34.000Z,42.69
2022-12-17T15:02:35.000Z,53.87
2022-12-17T15:07:35.000Z,42.7
2022-12-17T15:12:35.000Z,43.63
2022-12-17T15:17:35.000Z,43.91
2022-12-17T15:22:34.000Z,44.72
2022-12-17T15:27:34.000Z,47.22
2022-12-17T15:32:35.000Z,47.22
2022-12-17T15:37:36.000Z,42.65
2022-12-17T15:42:35.000Z,41.92
2022-12-17T15:47:35.000Z,42.06
2022-12-17T15:52:34.000Z,40.94
2022-12-17T15:57:35.000Z,43.85
2022-12-17T16:02:35.000Z,45.96
2022-12-17T16:07:35.000Z,47.56
2022-12-17T16:12:35.000Z,47.15
2022-12-17T16:17:35.000Z,48.74
2022-12-17T16:22:35.000Z,49.82
2022-12-17T16:27:34.000Z,44.04
2022-12-17T16:32:35.000Z,46.82
2022-12-17T16:37:34.000Z,55.29
2022-12-17T16:42:35.000Z,54.81
2022-12-17T16:47:34.000Z,54.81
2022-12-17T16:52:35.000Z,49.7
2022-12-17T16:57:35.000Z,51.84
2022-12-17T17:02:35.000Z,49.51
2022-12-17T17:07:35.000Z,50.14
2022-12-17T17:12:35.000Z,49.24
2022-12-17T17:18:06.000Z,47.25
2022-12-17T17:22:35.000Z,46.42
2022-12-17T17:27:34.000Z,48.68
2022-12-17T17:32:34.000Z,48.44
2022-12-17T17:42:35.000Z,49.3
2022-12-17T17:47:34.000Z,47.16
2022-12-17T17:57:34.000Z,44.33
2022-12-17T18:02:35.000Z,43.72
2022-12-17T18:07:36.000Z,45.51
2022-12-17T18:12:35.000Z,46.26
2022-12-17T18:17:35.000Z,46.14
2022-12-17T18:22:34.000Z,43.79
2022-12-17T18:27:34.000Z,41.95
2022-12-17T18:32:35.000Z,41.66
2022-12-17T18:37:35.000Z,38.26
2022-12-17T18:42:34.000Z,39.75
2022-12-17T18:47:35.000Z,40.18
2022-12-17T18:52:35.000Z,40.18
2022-12-17T18:57:35.000Z,39.72
2022-12-17T19:02:35.000Z,41.93
2022-12-17T19:07:35.000Z,41.72
2022-12-17T19:12:34.000Z,44.32
2022-12-17T19:17:35.000Z,43.9
2022-12-17T19:22:35.000Z,41.18
2022-12-17T19:27:35.000Z,42.65
2022-12-17T19:32:35.000Z,44.91
2022-12-17T19:37:34.000Z,41.7
2022-12-17T19:42:35.000Z,42.7
2022-12-17T19:47:35.000Z,44.43
2022-12-17T19:52:34.000Z,43.06
2022-12-17T19:57:35.000Z,41.58
2022-12-17T20:02:41.000Z,42.71
2022-12-17T20:07:34.000Z,42.71
2022-12-17T20:12:35.000Z,42.68
2022-12-17T20:17:35.000Z,40.71
2022-12-17T20:22:34.000Z,41.78
2022-12-17T20:27:35.000Z,41.57
2022-12-17T20:37:34.000Z,42.04
2022-12-17T20:42:35.000Z,42.39
2022-12-17T20:47:35.000Z,41.85
2022-12-17T20:52:34.000Z,39.07
2022-12-17T20:57:35.000Z,41.52
2022-12-17T21:02:35.000Z,41.52
2022-12-17T21:07:34.000Z,42.7
2022-12-17T21:12:34.000Z,43.52
2022-12-17T21:17:34.000Z,45.61
2022-12-17T21:22:34.000Z,43.02
2022-12-17T21:27:36.000Z,42.53
2022-12-17T21:32:41.000Z,39.54
2022-12-17T21:37:35.000Z,41.02
2022-12-17T21:42:35.000Z,40.29
2022-12-17T21:47:34.000Z,38.29
2022-12-17T21:52:34.000Z,37.58
2022-12-17T21:57:35.000Z,38.28
2022-12-17T22:02:35.000Z,37.21
2022-12-17T22:07:45.000Z,35.57
2022-12-17T22:12:35.000Z,35.57
2022-12-17T22:17:35.000Z,33.15
2022-12-17T22:22:34.000Z,34.46
2022-12-17T22:27:35.000Z,33.67
2022-12-17T22:32:35.000Z,34.66
2022-12-17T22:44:49.000Z,38.52
2022-12-17T22:52:35.000Z,35.4
2022-12-17T22:57:47.000Z,31.91
2022-12-17T23:07:41.000Z,30.77
2022-12-17T23:12:34.000Z,31.01
2022-12-17T23:17:35.000Z,30.64
2022-12-17T23:27:34.000Z,25.54
2022-12-17T23:32:35.000Z,30.94
2022-12-17T23:37:34.000Z,28.89
2022-12-17T23:42:34.000Z,28.02
2022-12-17T23:47:34.000Z,32.48
2022-12-17T23:52:35.000Z,31.89
2022-12-17T23:57:34.000Z,29.7
